createdAt,value
2022-12-05T00:00:23.018Z,9.57
2022-12-05T00:01:44.229Z,7.02
2022-12-05T00:03:05.602Z,7.26
2022-12-05T00:04:26.956Z,8.63
2022-12-05T00:05:48.540Z,6.91
2022-12-05T00:07:09.836Z,6.54
2022-12-05T00:08:30.827Z,7.02
2022-12-05T00:09:52.325Z,8.16
2022-12-05T00:22:57.131Z,5.63
2022-12-05T00:25:32.185Z,8.25
2022-12-05T00:26:53.894Z,9.51
2022-12-05T00:28:15.162Z,7.44
2022-12-05T00:29:36.492Z,10.43
2022-12-05T00:31:03.174Z,8.31
2022-12-05T00:32:24.924Z,7.51
2022-12-05T00:33:46.450Z,6.51
2022-12-05T00:35:08.498Z,5.72
2022-12-05T00:36:31.893Z,7.66
2022-12-05T00:37:53.202Z,6.23
2022-12-05T00:39:14.376Z,5.55
2022-12-05T00:41:45.483Z,6.53
2022-12-05T00:43:07.387Z,7.17
2022-12-05T00:44:28.393Z,6.71
2022-12-05T00:45:50.037Z,6.22
2022-12-05T00:47:11.421Z,8.90
2022-12-05T00:48:33.324Z,6.05
2022-12-05T00:49:55.224Z,6.11
2022-12-05T00:51:21.642Z,6.86
2022-12-05T00:52:42.871Z,7.69
2022-12-05T00:55:16.591Z,6.39
2022-12-05T00:56:38.412Z,5.55
2022-12-05T00:57:59.750Z,5.98
2022-12-05T00:59:21.351Z,5.36
2022-12-05T01:00:43.085Z,5.44
2022-12-05T01:02:04.429Z,6.58
2022-12-05T01:03:26.057Z,6.52
2022-12-05T01:04:47.132Z,6.20
2022-12-05T01:06:10.105Z,6.30
2022-12-05T01:07:31.235Z,6.41
2022-12-05T01:08:53.911Z,6.29
2022-12-05T01:10:15.372Z,6.63
2022-12-05T01:11:41.214Z,6.33
2022-12-05T01:14:21.996Z,7.26
2022-12-05T01:15:43.010Z,5.25
2022-12-05T01:17:04.603Z,5.36
2022-12-05T01:18:26.098Z,5.91
2022-12-05T01:19:47.034Z,5.32
2022-12-05T01:21:08.587Z,6.71
2022-12-05T01:22:29.519Z,5.09
2022-12-05T01:23:51.229Z,6.95
2022-12-05T01:25:12.520Z,5.96
2022-12-05T01:26:34.139Z,7.21
2022-12-05T01:27:55.171Z,6.30
2022-12-05T01:29:18.036Z,4.81
2022-12-05T01:30:39.827Z,4.86
2022-12-05T01:32:00.899Z,4.70
2022-12-05T01:33:22.178Z,9.13
2022-12-05T01:34:43.239Z,8.36
2022-12-05T01:36:05.272Z,5.36
2022-12-05T01:37:26.277Z,8.48
2022-12-05T01:38:47.516Z,6.56
2022-12-05T01:41:34.422Z,7.73
2022-12-05T01:42:55.767Z,6.93
2022-12-05T01:44:20.907Z,5.59
2022-12-05T01:45:43.711Z,5.86
2022-12-05T01:47:05.051Z,4.46
2022-12-05T01:48:29.559Z,6.61
2022-12-05T01:49:50.691Z,6.86
2022-12-05T01:51:12.225Z,7.62
2022-12-05T01:52:33.765Z,5.88
2022-12-05T01:53:54.909Z,5.65
2022-12-05T01:55:16.683Z,5.49
2022-12-05T01:56:39.369Z,5.61
2022-12-05T01:58:00.391Z,5.31
2022-12-05T01:59:21.665Z,4.76
2022-12-05T02:00:43.304Z,5.50
2022-12-05T02:02:04.374Z,4.70
2022-12-05T02:03:25.648Z,5.75
2022-12-05T02:06:15.007Z,6.71
2022-12-05T02:07:36.723Z,5.24
2022-12-05T02:08:57.880Z,4.88
2022-12-05T02:10:19.941Z,5.43
2022-12-05T02:11:53.140Z,5.17
2022-12-05T02:15:00.403Z,5.84
2022-12-05T02:16:38.017Z,4.84
2022-12-05T02:18:17.913Z,5.19
2022-12-05T02:19:51.478Z,4.92
2022-12-05T02:23:24.432Z,9.35
2022-12-05T02:26:31.656Z,4.73
2022-12-05T02:28:28.694Z,6.20
2022-12-05T02:29:59.741Z,5.39
2022-12-05T02:31:34.156Z,5.32
2022-12-05T02:33:08.331Z,6.45
2022-12-05T02:34:48.968Z,6.01
2022-12-05T02:36:22.922Z,5.98
2022-12-05T02:37:47.657Z,7.72
2022-12-05T02:40:56.154Z,9.03
2022-12-05T02:43:48.908Z,7.23
2022-12-05T02:45:12.389Z,7.62
2022-12-05T02:46:36.104Z,6.89
2022-12-05T02:47:57.588Z,17.14
2022-12-05T02:49:21.580Z,10.46
2022-12-05T02:50:42.838Z,8.73
2022-12-05T02:52:06.268Z,9.59
2022-12-05T02:53:27.564Z,8.18
2022-12-05T02:54:48.939Z,7.61
2022-12-05T02:56:10.750Z,5.13
2022-12-05T02:57:32.072Z,11.66
2022-12-05T02:58:54.379Z,6.43
2022-12-05T03:01:38.123Z,9.81
2022-12-05T03:02:59.316Z,8.17
2022-12-05T03:04:21.920Z,7.87
2022-12-05T03:07:09.678Z,10.20
2022-12-05T03:09:56.181Z,10.50
2022-12-05T03:11:17.752Z,7.16
2022-12-05T03:13:54.499Z,5.04
2022-12-05T03:15:28.215Z,6.01
2022-12-05T03:16:51.321Z,5.45
2022-12-05T03:18:16.267Z,6.99
2022-12-05T03:21:09.713Z,4.46
2022-12-05T03:23:55.964Z,5.87
2022-12-05T03:25:17.613Z,5.19
2022-12-05T03:26:54.671Z,5.43
2022-12-05T03:29:52.495Z,4.48
2022-12-05T03:31:14.166Z,5.37
2022-12-05T03:32:48.575Z,4.79
2022-12-05T03:35:38.035Z,4.59
2022-12-05T03:36:59.705Z,5.69
2022-12-05T03:39:53.620Z,4.83
2022-12-05T03:41:43.780Z,4.96
2022-12-05T03:43:23.923Z,4.36
2022-12-05T03:44:51.558Z,5.07
2022-12-05T03:46:38.392Z,6.32
2022-12-05T03:49:33.639Z,5.57
2022-12-05T03:52:14.994Z,4.53
2022-12-05T03:55:06.044Z,4.44
2022-12-05T03:56:31.118Z,5.24
2022-12-05T03:57:55.881Z,4.05
2022-12-05T03:59:29.495Z,8.30
2022-12-05T04:00:51.126Z,4.67
2022-12-05T04:03:37.364Z,4.89
2022-12-05T04:06:25.963Z,5.44
2022-12-05T04:07:50.300Z,5.40
2022-12-05T04:10:29.078Z,6.01
2022-12-05T04:11:56.645Z,21.37
2022-12-05T04:13:21.307Z,18.71
2022-12-05T04:16:00.668Z,12.37
2022-12-05T04:17:37.716Z,19.29
2022-12-05T04:21:40.748Z,5.81
2022-12-05T04:23:02.033Z,11.63
2022-12-05T04:24:28.958Z,6.69
2022-12-05T04:26:01.480Z,7.13
2022-12-05T04:27:49.280Z,8.42
2022-12-05T04:29:14.239Z,9.44
2022-12-05T04:31:49.122Z,6.27
2022-12-05T04:33:23.102Z,5.22
2022-12-05T04:36:22.389Z,7.29
2022-12-05T04:37:45.031Z,10.72
2022-12-05T04:39:19.299Z,6.70
2022-12-05T04:40:50.950Z,15.70
2022-12-05T04:43:33.830Z,9.46
2022-12-05T04:44:58.428Z,6.02
2022-12-05T04:46:20.091Z,6.46
2022-12-05T04:47:45.104Z,9.12
2022-12-05T04:49:07.394Z,5.71
2022-12-05T04:50:30.703Z,8.94
2022-12-05T04:51:53.696Z,6.70
2022-12-05T04:53:15.629Z,8.30
2022-12-05T04:56:07.612Z,6.81
2022-12-05T04:58:54.757Z,7.87
2022-12-05T05:00:17.093Z,7.49
2022-12-05T05:01:43.894Z,6.01
2022-12-05T05:03:11.948Z,5.28
2022-12-05T05:04:41.081Z,6.18
2022-12-05T05:06:03.640Z,7.42
2022-12-05T05:07:25.004Z,12.49
2022-12-05T05:10:06.025Z,28.49
2022-12-05T05:11:32.018Z,12.43
2022-12-05T05:12:53.719Z,25.63
2022-12-05T05:14:14.979Z,45.21
2022-12-05T05:15:36.431Z,42.68
2022-12-05T05:16:57.785Z,35.97
2022-12-05T05:18:19.025Z,34.09
2022-12-05T05:19:40.649Z,20.88
2022-12-05T05:21:02.239Z,43.67
2022-12-05T05:22:23.443Z,36.76
2022-12-05T05:23:44.626Z,25.51
2022-12-05T05:25:08.974Z,14.88
2022-12-05T05:26:31.093Z,16.20
2022-12-05T05:27:54.768Z,8.29
2022-12-05T05:29:16.024Z,10.86
2022-12-05T05:32:03.411Z,13.82
2022-12-05T05:33:27.800Z,19.56
2022-12-05T05:34:50.055Z,19.86
2022-12-05T05:36:13.373Z,10.76
2022-12-05T05:37:35.737Z,27.36
2022-12-05T05:38:59.711Z,26.31
2022-12-05T05:40:22.597Z,16.35
2022-12-05T05:41:45.629Z,24.18
2022-12-05T05:43:07.735Z,21.10
2022-12-05T05:44:30.220Z,13.63
2022-12-05T05:45:51.288Z,25.30
2022-12-05T05:47:15.108Z,12.33
2022-12-05T05:48:36.225Z,7.27
2022-12-05T05:49:57.858Z,15.42
2022-12-05T05:51:20.417Z,24.50
2022-12-05T05:52:43.314Z,26.76
2022-12-05T05:54:06.116Z,18.71
2022-12-05T05:55:33.411Z,8.26
2022-12-05T05:56:57.198Z,10.64
2022-12-05T05:59:31.396Z,8.86
2022-12-05T06:00:52.619Z,9.92
2022-12-05T06:02:13.756Z,7.56
2022-12-05T06:03:35.485Z,7.36
2022-12-05T06:04:56.649Z,7.54
2022-12-05T06:06:18.465Z,7.45
2022-12-05T06:07:39.879Z,8.43
2022-12-05T06:09:01.125Z,15.07
2022-12-05T06:10:22.355Z,61.68
2022-12-05T06:11:44.878Z,27.98
2022-12-05T06:13:08.008Z,31.36
2022-12-05T06:14:29.972Z,28.44
2022-12-05T06:15:51.505Z,27.38
2022-12-05T06:17:12.801Z,24.07
2022-12-05T06:18:34.477Z,16.34
2022-12-05T06:21:19.100Z,12.94
2022-12-05T06:22:40.377Z,18.29
2022-12-05T06:24:01.882Z,13.98
2022-12-05T06:25:25.378Z,9.79
2022-12-05T06:26:46.491Z,21.62
2022-12-05T06:28:07.804Z,11.14
2022-12-05T06:29:33.511Z,9.54
2022-12-05T06:30:52.210Z,7.92
2022-12-05T06:32:13.576Z,8.10
2022-12-05T06:33:34.882Z,8.38
2022-12-05T06:34:56.259Z,8.69
2022-12-05T06:36:19.290Z,8.81
2022-12-05T06:37:44.061Z,22.52
2022-12-05T06:39:06.300Z,27.07
2022-12-05T06:40:28.461Z,10.36
2022-12-05T06:41:49.460Z,28.36
2022-12-05T06:43:10.699Z,23.47
2022-12-05T06:44:32.505Z,12.55
2022-12-05T06:45:53.562Z,17.07
2022-12-05T06:47:14.927Z,11.05
2022-12-05T06:48:35.968Z,10.73
2022-12-05T06:49:58.024Z,17.84
2022-12-05T06:51:19.239Z,13.54
2022-12-05T06:52:40.559Z,11.87
2022-12-05T06:54:01.551Z,15.38
2022-12-05T06:55:23.356Z,12.45
2022-12-05T06:56:44.749Z,13.14
2022-12-05T06:58:06.144Z,12.58
2022-12-05T06:59:27.192Z,9.31
2022-12-05T07:00:49.797Z,6.72
2022-12-05T07:02:11.863Z,11.30
2022-12-05T07:03:33.421Z,11.89
2022-12-05T07:04:54.700Z,9.48
2022-12-05T07:06:18.685Z,10.82
2022-12-05T07:07:39.934Z,14.60
2022-12-05T07:09:01.630Z,17.70
2022-12-05T07:10:22.923Z,12.93
2022-12-05T07:11:46.918Z,18.39
2022-12-05T07:13:10.074Z,10.81
2022-12-05T07:14:47.043Z,9.26
2022-12-05T07:15:54.119Z,16.59
2022-12-05T07:17:18.614Z,9.41
2022-12-05T07:18:39.898Z,8.56
2022-12-05T07:20:01.415Z,16.59
2022-12-05T07:21:22.785Z,9.96
2022-12-05T07:22:43.976Z,15.77
2022-12-05T07:24:05.435Z,9.85
2022-12-05T07:25:26.963Z,9.94
2022-12-05T07:26:48.985Z,9.67
2022-12-05T07:28:10.074Z,9.67
2022-12-05T07:29:33.429Z,8.56
2022-12-05T07:31:03.460Z,10.07
2022-12-05T07:32:26.224Z,8.21
2022-12-05T07:33:49.108Z,8.06
2022-12-05T07:35:10.745Z,8.83
2022-12-05T07:37:42.311Z,10.34
2022-12-05T07:39:04.016Z,11.07
2022-12-05T07:40:26.425Z,7.79
2022-12-05T07:41:47.893Z,12.66
2022-12-05T07:43:10.357Z,8.00
2022-12-05T07:44:32.007Z,11.12
2022-12-05T07:45:53.227Z,14.93
2022-12-05T07:47:15.086Z,26.88
2022-12-05T07:48:36.596Z,22.59
2022-12-05T07:49:58.343Z,21.48
2022-12-05T07:51:20.781Z,12.51
2022-12-05T07:52:42.294Z,18.21
2022-12-05T07:54:06.516Z,19.92
2022-12-05T07:55:27.560Z,14.26
2022-12-05T07:56:49.069Z,17.78
2022-12-05T07:58:10.469Z,16.67
2022-12-05T07:59:32.014Z,18.69
2022-12-05T08:23:11.227Z,27.14
2022-12-05T08:24:33.111Z,16.48
2022-12-05T08:25:54.827Z,16.54
2022-12-05T08:27:18.188Z,11.66
2022-12-05T08:28:41.285Z,37.72
2022-12-05T08:30:06.376Z,161.16
2022-12-05T08:31:29.601Z,202.46
2022-12-05T08:32:51.544Z,40.32
2022-12-05T08:34:13.785Z,58.60
2022-12-05T08:35:37.356Z,19.29
2022-12-05T08:37:00.130Z,20.78
2022-12-05T08:38:22.324Z,16.08
2022-12-05T08:39:44.583Z,15.02
2022-12-05T08:41:09.417Z,12.38
2022-12-05T08:42:33.002Z,8.68
2022-12-05T08:43:59.634Z,10.91
2022-12-05T08:45:25.092Z,9.62
2022-12-05T08:46:50.371Z,10.83
2022-12-05T08:48:12.169Z,7.64
2022-12-05T08:49:34.661Z,16.18
2022-12-05T08:50:57.982Z,11.94
2022-12-05T08:52:19.104Z,14.38
2022-12-05T08:53:57.130Z,9.89
2022-12-05T08:55:26.197Z,9.30
2022-12-05T08:56:50.735Z,10.83
2022-12-05T08:58:14.957Z,9.78
2022-12-05T08:59:36.466Z,12.56
2022-12-05T09:01:15.072Z,9.61
2022-12-05T09:02:36.563Z,9.41
2022-12-05T09:03:58.599Z,8.94
2022-12-05T09:05:34.423Z,8.94
2022-12-05T09:06:55.688Z,7.31
2022-12-05T09:08:17.148Z,8.12
2022-12-05T09:09:41.196Z,7.26
2022-12-05T09:11:16.595Z,8.06
2022-12-05T09:12:40.201Z,9.06
2022-12-05T09:15:20.435Z,8.57
2022-12-05T09:16:44.849Z,11.59
2022-12-05T09:18:05.916Z,12.36
2022-12-05T09:19:27.417Z,10.78
2022-12-05T09:20:48.714Z,12.14
2022-12-05T09:22:09.963Z,10.92
2022-12-05T09:23:31.568Z,8.82
2022-12-05T09:24:52.930Z,9.06
2022-12-05T09:26:16.104Z,11.33
2022-12-05T09:27:38.212Z,12.28
2022-12-05T09:29:01.054Z,12.84
2022-12-05T09:30:22.415Z,22.09
2022-12-05T09:31:45.344Z,19.98
2022-12-05T09:33:06.738Z,9.59
2022-12-05T09:34:30.034Z,13.39
2022-12-05T09:35:51.545Z,9.81
2022-12-05T09:37:37.667Z,11.47
2022-12-05T09:38:36.649Z,10.05
2022-12-05T09:40:00.064Z,14.17
2022-12-05T09:41:27.693Z,12.29
2022-12-05T09:43:00.613Z,10.21
2022-12-05T09:44:37.627Z,11.10
2022-12-05T09:47:56.093Z,21.47
2022-12-05T09:49:17.547Z,19.09
2022-12-05T09:50:44.491Z,15.42
2022-12-05T09:52:06.179Z,24.26
2022-12-05T09:53:32.074Z,18.38
2022-12-05T09:54:53.244Z,10.96
2022-12-05T09:56:28.733Z,8.32
2022-12-05T09:57:57.529Z,10.01
2022-12-05T09:59:20.714Z,12.42
2022-12-05T10:00:42.514Z,12.22
2022-12-05T10:03:59.240Z,10.29
2022-12-05T10:06:42.604Z,11.83
2022-12-05T10:08:16.757Z,12.21
2022-12-05T10:09:58.313Z,11.95
2022-12-05T10:11:35.806Z,12.73
2022-12-05T10:13:20.712Z,8.59
2022-12-05T10:15:05.893Z,9.70
2022-12-05T10:16:36.056Z,9.80
2022-12-05T10:18:00.754Z,9.84
2022-12-05T10:19:26.007Z,12.02
2022-12-05T10:20:59.417Z,12.09
2022-12-05T10:35:30.253Z,10.14
2022-12-05T10:36:58.060Z,12.03
2022-12-05T10:38:27.746Z,17.31
2022-12-05T10:39:49.821Z,10.63
2022-12-05T10:41:13.072Z,13.87
2022-12-05T10:42:35.071Z,15.73
2022-12-05T10:43:56.716Z,33.59
2022-12-05T10:46:30.989Z,19.06
2022-12-05T10:47:53.855Z,16.32
2022-12-05T10:49:15.334Z,12.96
2022-12-05T10:50:37.186Z,12.39
2022-12-05T10:51:58.422Z,15.96
2022-12-05T10:54:40.473Z,32.92
2022-12-05T10:57:27.912Z,12.51
2022-12-05T10:58:55.146Z,12.29
2022-12-05T11:01:33.055Z,20.22
2022-12-05T11:02:54.519Z,31.70
2022-12-05T11:04:33.748Z,30.51
2022-12-05T11:06:19.904Z,17.56
2022-12-05T11:07:46.558Z,11.18
2022-12-05T11:09:13.765Z,9.24
2022-12-05T11:10:37.387Z,7.38
2022-12-05T11:12:08.096Z,9.42
2022-12-05T11:13:30.131Z,8.11
2022-12-05T11:17:55.289Z,10.97
2022-12-05T11:19:31.660Z,10.75
2022-12-05T11:20:55.123Z,9.91
2022-12-05T11:22:16.721Z,8.29
2022-12-05T11:23:38.121Z,9.65
2022-12-05T11:24:59.800Z,10.01
2022-12-05T11:26:36.026Z,9.03
2022-12-05T11:28:01.482Z,12.65
2022-12-05T11:31:02.556Z,11.46
2022-12-05T11:32:28.906Z,10.70
2022-12-05T11:34:05.238Z,9.23
2022-12-05T11:35:27.007Z,10.34
2022-12-05T11:38:12.328Z,10.66
2022-12-05T11:39:38.930Z,11.64
2022-12-05T11:41:26.139Z,11.57
2022-12-05T11:46:26.881Z,10.64
2022-12-05T11:48:17.394Z,14.81
2022-12-05T11:50:05.809Z,68.21
2022-12-05T11:51:49.506Z,32.31
2022-12-05T11:53:23.174Z,30.94
2022-12-05T11:55:11.027Z,59.32
2022-12-05T11:56:48.081Z,19.72
2022-12-05T11:58:32.515Z,11.22
2022-12-05T12:00:04.039Z,11.51
2022-12-05T12:01:49.942Z,12.85
2022-12-05T12:04:54.192Z,12.96
2022-12-05T12:06:36.281Z,9.21
2022-12-05T12:08:13.742Z,9.82
2022-12-05T12:09:58.012Z,12.48
2022-12-05T12:11:35.199Z,9.13
2022-12-05T12:13:13.374Z,9.13
2022-12-05T12:14:57.977Z,9.20
2022-12-05T12:16:53.370Z,8.71
2022-12-05T12:20:41.548Z,11.05
2022-12-05T12:22:29.311Z,8.86
2022-12-05T12:24:03.408Z,8.72
2022-12-05T12:25:48.888Z,7.93
2022-12-05T12:27:28.845Z,10.36
2022-12-05T12:29:22.436Z,11.96
2022-12-05T12:32:40.758Z,21.81
2022-12-05T12:34:18.100Z,14.37
2022-12-05T12:35:51.425Z,14.13
2022-12-05T12:37:43.287Z,14.82
2022-12-05T12:39:21.203Z,10.50
2022-12-05T12:40:53.628Z,10.34
2022-12-05T12:42:21.981Z,9.16
2022-12-05T12:45:33.240Z,10.70
2022-12-05T12:48:40.200Z,15.74
2022-12-05T12:50:23.499Z,14.32
2022-12-05T12:51:58.551Z,14.04
2022-12-05T12:53:35.707Z,14.49
2022-12-05T12:55:27.849Z,13.64
2022-12-05T12:57:15.277Z,10.51
2022-12-05T13:00:30.047Z,10.95
2022-12-05T13:03:19.018Z,13.92
2022-12-05T13:04:59.877Z,10.51
2022-12-05T13:09:01.106Z,14.22
2022-12-05T13:11:54.087Z,9.68
2022-12-05T13:14:31.857Z,11.16
2022-12-05T13:15:55.097Z,9.65
2022-12-05T13:18:39.053Z,11.78
2022-12-05T13:20:00.434Z,10.26
2022-12-05T13:21:21.561Z,9.90
2022-12-05T13:22:43.580Z,10.84
2022-12-05T13:24:06.562Z,13.08
2022-12-05T13:25:30.133Z,10.76
2022-12-05T13:26:51.617Z,14.31
2022-12-05T13:28:28.383Z,11.18
2022-12-05T13:29:55.895Z,9.81
2022-12-05T13:31:17.341Z,7.47
2022-12-05T13:32:39.434Z,8.44
2022-12-05T13:34:01.201Z,7.45
2022-12-05T13:35:35.153Z,8.33
2022-12-05T13:36:57.368Z,9.75
2022-12-05T13:39:39.131Z,12.22
2022-12-05T13:41:01.150Z,25.12
2022-12-05T13:42:24.530Z,12.16
2022-12-05T13:45:13.443Z,10.37
2022-12-05T13:46:36.095Z,9.65
2022-12-05T13:48:01.318Z,12.92
2022-12-05T13:49:38.069Z,13.08
2022-12-05T13:51:15.736Z,16.04
2022-12-05T13:52:51.819Z,13.77
2022-12-05T13:54:18.315Z,12.74
2022-12-05T13:55:39.930Z,13.31
2022-12-05T13:57:02.968Z,12.22
2022-12-05T13:58:28.146Z,11.41
2022-12-05T14:00:11.073Z,10.73
2022-12-05T14:01:51.977Z,9.03
2022-12-05T14:03:17.645Z,9.26
2022-12-05T14:04:48.229Z,10.49
2022-12-05T14:06:10.247Z,13.01
2022-12-05T14:08:51.747Z,11.14
2022-12-05T14:11:34.975Z,9.79
2022-12-05T14:14:13.691Z,12.99
2022-12-05T14:15:36.106Z,13.87
2022-12-05T14:16:58.266Z,10.56
2022-12-05T14:18:29.746Z,12.59
2022-12-05T14:20:17.755Z,28.06
2022-12-05T14:23:27.704Z,17.27
2022-12-05T14:25:00.786Z,16.26
2022-12-05T14:26:49.300Z,22.47
2022-12-05T14:28:50.105Z,26.82
2022-12-05T14:30:32.677Z,33.36
2022-12-05T14:32:06.962Z,89.24
2022-12-05T14:33:28.319Z,14.68
2022-12-05T14:35:02.832Z,16.41
2022-12-05T14:36:25.414Z,25.56
2022-12-05T14:37:58.622Z,11.12
2022-12-05T14:39:37.595Z,19.42
2022-12-05T17:20:56.131Z,10.97
2022-12-05T17:22:18.447Z,11.46
2022-12-05T17:23:44.543Z,11.89
2022-12-05T17:26:27.927Z,12.09
2022-12-05T17:27:51.351Z,11.26
2022-12-05T17:29:13.062Z,11.75
2022-12-05T17:30:34.941Z,16.36
2022-12-05T17:31:56.143Z,16.31
2022-12-05T17:33:18.347Z,19.34
2022-12-05T17:34:39.595Z,12.90
2022-12-05T17:36:02.117Z,16.11
2022-12-05T17:37:23.352Z,12.81
2022-12-05T17:38:45.198Z,13.23
2022-12-05T17:40:09.512Z,11.46
2022-12-05T17:41:30.999Z,10.02
2022-12-05T17:42:52.321Z,10.26
2022-12-05T17:44:18.222Z,9.71
2022-12-05T17:45:40.015Z,10.82
2022-12-05T17:47:07.472Z,11.27
2022-12-05T17:48:24.683Z,13.00
2022-12-05T17:49:46.354Z,9.70
2022-12-05T17:51:19.885Z,10.38
2022-12-05T17:52:42.019Z,10.52
2022-12-05T17:54:03.840Z,11.62
2022-12-05T17:55:27.227Z,9.85
2022-12-05T17:56:48.991Z,10.64
2022-12-05T17:58:10.200Z,9.07
2022-12-05T17:59:31.719Z,8.98
2022-12-05T18:00:53.476Z,10.51
2022-12-05T18:02:15.396Z,8.45
2022-12-05T18:03:37.397Z,11.45
2022-12-05T18:05:00.471Z,11.60
2022-12-05T18:06:21.925Z,10.24
2022-12-05T18:07:43.734Z,10.39
2022-12-05T18:09:05.692Z,11.59
2022-12-05T18:10:27.039Z,10.27
2022-12-05T18:11:48.251Z,10.28
2022-12-05T18:13:11.260Z,11.31
2022-12-05T18:14:32.250Z,12.47
2022-12-05T18:15:55.712Z,10.12
2022-12-05T18:17:17.199Z,11.63
2022-12-05T18:18:38.471Z,10.94
2022-12-05T18:19:59.861Z,9.62
2022-12-05T18:21:21.463Z,9.27
2022-12-05T18:22:43.059Z,12.13
2022-12-05T18:24:04.676Z,10.03
2022-12-05T18:25:26.337Z,12.89
2022-12-05T18:26:48.077Z,18.64
2022-12-05T18:28:09.871Z,37.44
2022-12-05T18:29:31.223Z,30.91
2022-12-05T18:31:12.911Z,18.73
2022-12-05T18:32:33.927Z,15.32
2022-12-05T18:33:55.562Z,12.41
2022-12-05T18:35:17.074Z,13.10
2022-12-05T18:36:38.995Z,10.68
2022-12-05T18:38:00.472Z,11.25
2022-12-05T18:39:23.782Z,12.11
2022-12-05T18:40:45.616Z,12.16
2022-12-05T18:42:11.744Z,11.90
2022-12-05T18:43:30.397Z,12.99
2022-12-05T18:44:51.583Z,11.56
2022-12-05T18:46:13.306Z,14.89
2022-12-05T18:47:35.483Z,12.03
2022-12-05T18:49:01.743Z,12.13
2022-12-05T18:51:41.109Z,10.70
2022-12-05T18:53:02.548Z,11.27
2022-12-05T18:54:24.167Z,12.75
2022-12-05T18:56:05.337Z,12.82
2022-12-05T18:57:09.315Z,10.56
2022-12-05T18:58:31.095Z,12.51
2022-12-05T18:59:52.462Z,13.35
2022-12-05T19:01:14.498Z,10.11
2022-12-05T19:02:35.894Z,11.47
2022-12-05T19:03:57.668Z,10.94
2022-12-05T19:05:18.900Z,13.86
2022-12-05T19:06:42.176Z,10.19
2022-12-05T19:08:04.409Z,11.67
2022-12-05T19:09:26.813Z,9.68
2022-12-05T19:10:47.945Z,12.27
2022-12-05T19:12:09.127Z,13.70
2022-12-05T19:13:30.716Z,12.52
2022-12-05T19:14:52.161Z,9.91
2022-12-05T19:16:14.037Z,9.97
2022-12-05T19:17:35.331Z,10.67
2022-12-05T19:18:58.297Z,10.97
2022-12-05T19:20:19.981Z,8.96
2022-12-05T19:21:41.314Z,10.03
2022-12-05T19:23:02.711Z,12.08
2022-12-05T19:24:26.026Z,12.13
2022-12-05T19:27:09.461Z,11.21
2022-12-05T19:29:44.118Z,11.58
2022-12-05T19:31:10.812Z,10.08
2022-12-05T19:32:35.493Z,10.46
2022-12-05T19:35:18.263Z,9.42
2022-12-05T19:37:56.920Z,11.66
2022-12-05T19:39:27.016Z,10.62
2022-12-05T19:40:57.042Z,10.53
2022-12-05T19:42:20.156Z,10.54
2022-12-05T19:43:43.327Z,13.18
2022-12-05T19:47:07.748Z,11.43
2022-12-05T19:50:11.276Z,12.32
2022-12-05T19:51:33.650Z,10.97
2022-12-05T19:53:00.388Z,12.36
2022-12-05T19:54:21.377Z,11.51
2022-12-05T19:55:45.009Z,9.39
2022-12-05T19:57:11.215Z,11.25
2022-12-05T20:00:17.470Z,11.73
2022-12-05T20:01:43.456Z,9.46
2022-12-05T20:03:12.148Z,10.14
2022-12-05T20:04:34.103Z,10.22
2022-12-05T20:05:57.423Z,10.77
2022-12-05T20:07:20.411Z,10.98
2022-12-05T20:08:50.737Z,14.91
2022-12-05T20:10:14.137Z,12.64
2022-12-05T20:11:49.500Z,12.53
2022-12-05T20:13:24.223Z,13.97
2022-12-05T20:16:20.958Z,10.53
2022-12-05T20:17:42.180Z,9.57
2022-12-05T20:19:04.945Z,10.45
2022-12-05T20:20:28.183Z,9.97
2022-12-05T20:21:50.345Z,11.22
2022-12-05T20:23:11.698Z,12.81
2022-12-05T20:24:35.065Z,11.86
2022-12-05T20:26:05.446Z,10.49
2022-12-05T20:27:26.633Z,10.64
2022-12-05T20:28:49.816Z,11.64
2022-12-05T20:30:11.904Z,11.28
2022-12-05T20:31:36.025Z,12.42
2022-12-05T20:32:57.244Z,9.92
2022-12-05T20:34:21.981Z,9.93
2022-12-05T20:35:44.501Z,8.92
2022-12-05T20:37:06.002Z,8.33
2022-12-05T20:38:28.685Z,8.43
2022-12-05T20:39:50.075Z,8.99
2022-12-05T20:41:15.872Z,9.94
2022-12-05T20:42:46.652Z,8.66
2022-12-05T20:44:07.350Z,9.59
2022-12-05T20:45:30.948Z,8.84
2022-12-05T20:46:53.284Z,8.51
2022-12-05T20:48:25.598Z,8.88
2022-12-05T20:49:48.444Z,9.51
2022-12-05T20:51:16.886Z,9.75
2022-12-05T20:52:47.922Z,8.63
2022-12-05T20:54:09.317Z,11.22
2022-12-05T20:55:30.517Z,10.73
2022-12-05T20:56:54.347Z,8.49
2022-12-05T20:58:16.621Z,7.02
2022-12-05T20:59:39.071Z,10.18
2022-12-05T21:01:06.322Z,10.00
2022-12-05T21:02:28.194Z,9.39
2022-12-05T21:03:51.738Z,10.17
2022-12-05T21:05:20.610Z,8.68
2022-12-05T21:06:45.089Z,8.13
2022-12-05T21:08:06.416Z,9.38
2022-12-05T21:09:27.844Z,7.68
2022-12-05T21:10:57.472Z,9.61
2022-12-05T21:12:19.234Z,9.09
2022-12-05T21:13:44.495Z,10.86
2022-12-05T21:15:09.087Z,12.62
2022-12-05T21:16:31.968Z,9.50
2022-12-05T21:17:55.580Z,10.34
2022-12-05T21:19:21.966Z,10.85
2022-12-05T21:20:44.433Z,10.43
2022-12-05T21:22:07.570Z,9.29
2022-12-05T21:23:32.861Z,10.29
2022-12-05T21:24:54.246Z,10.53
2022-12-05T21:26:16.728Z,9.40
2022-12-05T21:27:38.233Z,8.86
2022-12-05T21:29:00.412Z,9.29
2022-12-05T21:30:21.544Z,6.17
2022-12-05T21:31:43.604Z,8.73
2022-12-05T21:33:04.892Z,8.06
2022-12-05T21:34:26.440Z,7.86
2022-12-05T21:35:54.784Z,11.18
2022-12-05T21:37:17.541Z,8.42
2022-12-05T21:38:41.430Z,10.10
2022-12-05T21:41:28.988Z,10.34
2022-12-05T21:42:50.568Z,16.80
2022-12-05T21:44:12.141Z,9.64
2022-12-05T21:45:36.577Z,9.57
2022-12-05T21:48:18.310Z,10.69
2022-12-05T21:49:39.690Z,9.96
2022-12-05T21:51:06.756Z,8.01
2022-12-05T21:52:28.202Z,10.16
2022-12-05T21:53:49.780Z,10.91
2022-12-05T21:55:11.044Z,8.46
2022-12-05T21:56:32.071Z,9.24
2022-12-05T21:57:53.273Z,9.34
2022-12-05T21:59:14.740Z,10.81
2022-12-05T22:00:36.708Z,9.23
2022-12-05T22:01:58.728Z,9.31
2022-12-05T22:03:19.979Z,8.16
2022-12-05T22:04:41.387Z,8.48
2022-12-05T22:06:04.891Z,10.04
2022-12-05T22:07:25.909Z,7.51
2022-12-05T22:08:47.673Z,9.11
2022-12-05T22:10:10.162Z,8.87
2022-12-05T22:11:31.363Z,9.87
2022-12-05T22:12:55.160Z,10.42
2022-12-05T22:14:16.545Z,9.97
2022-12-05T22:15:37.878Z,8.14
2022-12-05T22:16:59.063Z,10.08
2022-12-05T22:18:35.171Z,7.88
2022-12-05T22:19:57.173Z,9.08
2022-12-05T22:21:19.551Z,6.99
2022-12-05T22:22:40.740Z,11.23
2022-12-05T22:24:02.433Z,8.98
2022-12-05T22:25:23.775Z,10.12
2022-12-05T22:26:45.397Z,9.70
2022-12-05T22:28:06.671Z,10.69
2022-12-05T22:29:27.750Z,12.12
2022-12-05T22:30:49.258Z,11.16
2022-12-05T22:32:10.452Z,14.10
2022-12-05T22:33:31.434Z,9.53
2022-12-05T22:34:52.712Z,10.57
2022-12-05T22:36:15.872Z,10.91
2022-12-05T22:37:36.942Z,11.03
2022-12-05T22:38:58.165Z,8.26
2022-12-05T22:40:19.706Z,11.56
2022-12-05T22:41:40.863Z,12.47
2022-12-05T22:43:02.436Z,10.46
2022-12-05T22:44:23.914Z,9.01
2022-12-05T22:45:45.388Z,9.26
2022-12-05T22:47:08.010Z,9.22
2022-12-05T22:48:29.306Z,9.22
2022-12-05T22:49:50.784Z,11.97
2022-12-05T22:51:11.671Z,10.58
2022-12-05T22:52:32.674Z,9.68
2022-12-05T22:53:53.933Z,10.60
2022-12-05T22:55:14.960Z,9.86
2022-12-05T22:56:36.627Z,10.73
2022-12-05T22:57:57.823Z,10.43
2022-12-05T22:59:19.216Z,10.18
2022-12-05T23:00:41.108Z,9.27
2022-12-05T23:02:02.299Z,9.60
2022-12-05T23:03:38.518Z,10.32
2022-12-05T23:04:59.827Z,8.51
2022-12-05T23:06:21.329Z,8.82
2022-12-05T23:07:42.569Z,8.23
2022-12-05T23:09:05.684Z,9.02
2022-12-05T23:10:27.779Z,11.64
2022-12-05T23:11:49.227Z,8.60
2022-12-05T23:13:10.443Z,9.57
2022-12-05T23:14:31.376Z,8.91
2022-12-05T23:15:52.464Z,8.59
2022-12-05T23:17:13.723Z,10.69
2022-12-05T23:18:35.225Z,8.26
2022-12-05T23:19:56.651Z,9.39
2022-12-05T23:21:27.890Z,10.74
2022-12-05T23:22:48.790Z,8.71
2022-12-05T23:24:11.056Z,9.21
2022-12-05T23:25:32.057Z,8.18
2022-12-05T23:26:53.174Z,9.40
2022-12-05T23:28:14.234Z,9.21
2022-12-05T23:29:35.122Z,10.30
2022-12-05T23:31:00.158Z,8.53
2022-12-05T23:32:21.540Z,12.53
2022-12-05T23:33:42.982Z,10.97
2022-12-05T23:35:04.477Z,10.01
2022-12-05T23:36:26.009Z,10.17
2022-12-05T23:37:47.297Z,10.23
2022-12-05T23:39:08.568Z,10.93
2022-12-05T23:40:30.082Z,10.71
2022-12-05T23:41:51.041Z,10.78
2022-12-05T23:43:12.535Z,11.56
2022-12-05T23:44:34.075Z,10.34
2022-12-05T23:45:55.588Z,11.11
2022-12-05T23:47:16.556Z,10.69
2022-12-05T23:48:38.080Z,11.78
2022-12-05T23:49:59.768Z,14.07
2022-12-05T23:51:22.299Z,15.71
2022-12-05T23:52:43.257Z,20.72
2022-12-05T23:54:05.527Z,14.14
2022-12-05T23:55:26.840Z,14.47